Time;durP1;ratioP1;P1;durP2;ratioP2;P2;SDS_P1;SDS_P2;PMS_P1;PMS_P2;Temp;Humidity;BMP_temperature;BMP_pressure;BME280_temperature;BME280_humidity;BME280_pressure;Samples;Min_cycle;Max_cycle;Signal;HPM_P1;HPM_P2
2023/09/17 00:13:22;;;;;;;7.28;5.38;;;;;;;21.47;56.17;100650.81;51268341;23;20017;-68
2023/09/17 00:33:23;;;;;;;6.88;5.60;;;;;;;21.36;56.20;100635.81;51298282;23;20036;-68
2023/09/17 00:53:24;;;;;;;7.78;5.03;;;;;;;21.41;56.36;100628.38;51298852;23;20059;-69
2023/09/17 01:13:26;;;;;;;7.45;4.97;;;;;;;21.30;56.58;100619.59;51296958;23;20017;-67
2023/09/17 01:33:27;;;;;;;7.63;4.90;;;;;;;21.21;56.70;100621.13;51292916;23;20068;-68
2023/09/17 01:53:28;;;;;;;6.45;5.00;;;;;;;21.23;56.23;100603.44;51291357;23;20021;-68
2023/09/17 02:13:29;;;;;;;6.55;4.80;;;;;;;21.24;56.47;100616.47;51294008;23;20021;-69
2023/09/17 02:33:31;;;;;;;6.07;5.13;;;;;;;21.37;55.76;100603.25;51288722;23;20075;-68
2023/09/17 02:53:31;;;;;;;11.10;4.57;;;;;;;21.19;56.03;100592.28;51291048;23;20052;-67
2023/09/17 03:13:31;;;;;;;6.63;4.63;;;;;;;21.09;56.06;100607.06;51289288;23;20448;-68
2023/09/17 03:33:32;;;;;;;6.57;4.70;;;;;;;21.03;55.69;100599.63;51258043;23;20049;-69
2023/09/17 03:53:32;;;;;;;6.72;4.47;;;;;;;20.65;56.17;100572.47;51260605;23;20025;-69
2023/09/17 04:13:33;;;;;;;6.07;4.50;;;;;;;20.49;56.35;100583.25;51162375;23;20056;-71
2023/09/17 04:33:33;;;;;;;4.78;4.28;;;;;;;20.32;56.81;100597.59;51350843;23;20387;-70
2023/09/17 04:53:34;;;;;;;6.70;4.28;;;;;;;20.23;57.27;100632.44;51388525;23;20464;-70
2023/09/17 05:13:34;;;;;;;6.63;4.65;;;;;;;20.15;57.54;100625.06;51427396;23;20024;-70
2023/09/17 05:33:36;;;;;;;6.32;4.82;;;;;;;20.12;58.65;100664.75;51424650;23;20039;-72
2023/09/17 05:53:37;;;;;;;6.60;5.18;;;;;;;20.22;59.25;100684.19;51396096;23;20021;-70
2023/09/17 06:13:38;;;;;;;7.25;4.90;;;;;;;20.12;59.95;100676.09;51418013;23;20012;-69
2023/09/17 06:33:38;;;;;;;6.38;5.35;;;;;;;20.34;60.12;100700.09;51391301;23;20031;-68
2023/09/17 06:53:39;;;;;;;7.97;5.07;;;;;;;20.49;60.00;100672.69;51390867;23;20449;-69
2023/09/17 07:13:40;;;;;;;7.90;5.45;;;;;;;20.91;58.95;100704.88;51415649;23;20070;-68
2023/09/17 07:33:42;;;;;;;15.02;5.95;;;;;;;21.42;57.53;100706.47;51411655;23;20075;-73
2023/09/17 07:53:42;;;;;;;10.68;6.20;;;;;;;21.59;58.37;100691.22;51414063;23;20021;-67
2023/09/17 08:13:43;;;;;;;20.60;9.85;;;;;;;22.12;59.22;100709.25;51387431;23;20023;-71
2023/09/17 08:33:45;;;;;;;29.45;11.10;;;;;;;22.64;60.16;100722.88;51417015;23;20016;-68
2023/09/17 08:54:02;;;;;;;17.30;9.75;;;;;;;22.35;58.02;100677.59;51423053;23;20446;-70
2023/09/17 09:14:04;;;;;;;19.20;10.07;;;;;;;23.05;57.21;100698.59;51422318;23;20095;-67
2023/09/17 09:34:06;;;;;;;11.50;9.95;;;;;;;22.97;56.83;100694.75;51418551;23;20047;-68
2023/09/17 09:54:07;;;;;;;13.27;10.80;;;;;;;23.24;56.25;100672.38;51417769;23;20021;-70
2023/09/17 10:14:09;;;;;;;15.02;10.95;;;;;;;23.43;55.75;100665.56;51416562;23;20020;-70
2023/09/17 10:34:12;;;;;;;12.98;10.25;;;;;;;23.68;54.18;100635.31;51417831;23;20025;-71
2023/09/17 10:54:14;;;;;;;19.48;11.93;;;;;;;23.71;54.36;100616.53;51418253;23;20085;-71
2023/09/17 11:14:15;;;;;;;15.52;10.52;;;;;;;23.94;53.49;100613.75;51420453;23;20017;-72
2023/09/17 11:34:16;;;;;;;12.50;9.02;;;;;;;23.93;52.96;100589.09;51421796;23;20021;-72
2023/09/17 11:54:19;;;;;;;41.67;11.02;;;;;;;24.14;51.76;100562.63;51417173;23;20085;-70
2023/09/17 12:14:19;;;;;;;9.65;8.23;;;;;;;24.86;49.72;100572.25;51427974;23;20017;-70
2023/09/17 12:34:20;;;;;;;17.75;10.45;;;;;;;25.30;50.12;100543.47;51431553;23;20488;-71
2023/09/17 12:54:22;;;;;;;16.92;10.27;;;;;;;25.27;49.71;100546.44;51436442;23;20115;-71
2023/09/17 13:14:23;;;;;;;15.93;10.15;;;;;;;25.31;48.60;100539.84;51398888;23;20024;-68
2023/09/17 13:34:25;;;;;;;119.43;15.23;;;;;;;25.41;48.88;100531.91;51422324;23;20051;-72
2023/09/17 13:54:25;;;;;;;30.75;13.68;;;;;;;25.47;48.70;100520.72;51437839;22;20063;-72
2023/09/17 14:14:26;;;;;;;14.05;10.88;;;;;;;25.48;48.51;100524.25;51415395;23;20539;-69
2023/09/17 14:34:27;;;;;;;15.02;10.20;;;;;;;25.44;48.88;100493.69;51399608;23;20028;-72
2023/09/17 14:54:28;;;;;;;19.73;12.25;;;;;;;25.32;49.27;100491.19;51430623;23;20052;-73
2023/09/17 15:14:30;;;;;;;49.88;15.75;;;;;;;25.41;49.03;100492.16;51431227;23;20095;-73
2023/09/17 15:34:32;;;;;;;18.45;12.60;;;;;;;25.33;48.18;100481.41;51431447;23;20027;-74
2023/09/17 15:54:32;;;;;;;13.73;12.15;;;;;;;25.17;48.44;100472.25;51426408;23;20092;-71
2023/09/17 16:14:33;;;;;;;19.73;12.10;;;;;;;25.22;49.21;100487.72;51392812;23;20036;-71
2023/09/17 16:34:36;;;;;;;16.58;11.48;;;;;;;24.81;48.85;100442.06;51383848;23;20047;-74
2023/09/17 16:54:37;;;;;;;24.73;11.30;;;;;;;25.03;49.12;100497.38;51412325;23;20028;-77
2023/09/17 17:14:41;;;;;;;90.22;14.30;;;;;;;24.63;50.28;100461.25;51442897;22;20012;-79
2023/09/17 17:34:44;;;;;;;16.70;10.25;;;;;;;24.69;50.24;100486.38;51439965;23;20036;-78
2023/09/17 17:54:44;;;;;;;45.40;11.45;;;;;;;24.08;52.46;100461.78;51416837;22;20020;-79
2023/09/17 18:14:46;;;;;;;85.00;13.82;;;;;;;24.69;52.23;100516.34;51420913;22;20016;-80
2023/09/17 18:34:49;;;;;;;48.33;12.95;;;;;;;24.57;51.08;100515.63;51438040;22;20020;-74
2023/09/17 18:54:54;;;;;;;17.55;10.45;;;;;;;24.55;52.23;100546.69;51410836;23;20465;-77
2023/09/17 19:14:59;;;;;;;11.88;8.48;;;;;;;24.48;50.98;100574.66;51374485;22;20016;-74
2023/09/17 19:35:01;;;;;;;13.35;7.43;;;;;;;24.52;51.24;100578.72;51401966;23;20030;-75
2023/09/17 19:55:02;;;;;;;13.52;7.40;;;;;;;24.45;51.13;100569.66;51388285;23;20021;-76
2023/09/17 20:15:05;;;;;;;9.57;7.13;;;;;;;24.29;50.80;100571.00;51383454;23;20095;-76
2023/09/17 20:35:06;;;;;;;7.35;6.22;;;;;;;24.21;51.36;100588.53;51424548;23;20028;-74
2023/09/17 20:55:08;;;;;;;8.93;6.28;;;;;;;23.13;51.76;100432.84;51411477;22;20466;-74
2023/09/17 21:15:09;;;;;;;7.80;6.35;;;;;;;24.01;52.23;100583.19;51444924;23;20453;-75
2023/09/17 21:35:11;;;;;;;7.43;6.15;;;;;;;23.57;52.48;100513.75;51424801;23;20032;-72
2023/09/17 21:55:11;;;;;;;9.07;5.90;;;;;;;23.85;52.88;100575.66;51411957;23;20605;-74
2023/09/17 22:15:12;;;;;;;7.70;5.70;;;;;;;23.69;52.77;100548.88;51436436;23;20091;-75
2023/09/17 22:35:12;;;;;;;7.30;5.35;;;;;;;23.72;53.08;100561.84;51434847;22;20048;-77
2023/09/17 22:55:13;;;;;;;10.52;6.20;;;;;;;23.52;53.59;100545.03;51442853;22;20016;-77
2023/09/17 23:15:14;;;;;;;9.05;6.05;;;;;;;23.46;53.44;100554.31;51436912;23;20012;-75
2023/09/17 23:35:14;;;;;;;7.63;5.25;;;;;;;23.34;53.47;100557.03;51430091;23;20462;-76
2023/09/17 23:55:15;;;;;;;5.78;5.28;;;;;;;23.36;53.33;100566.63;51432809;22;20082;-73
